Campanya meteocatpedra

Dades de l'estació automàtica Port de Barcelona - Bocana Sud

?
?
Resum diari 12:30 TU
Dades diàries de l'estació meteorològica
Ratxa màxima del vent (10 m) 23.0 km/h - 197º 12:23 TU

El tram horari està expressat en Temps Universal (TU). Cal sumar una hora en horari d'hivern i dues en horari d'estiu per passar a l'hora oficial.

Port de Barcelona - Bocana Sud

Metadades estació meteorol´gica
Municipi El Prat de Llobregat
Comarca Baix Llobregat
Altitud 3 m
Data alta 08.04.2015
Estat actual Operativa
Dades de període
Període
TU
VVM (10 m)
km/h
DVM (10 m)
graus
VVX (10 m)
km/h
00:00 - 00:30 9.4 234 14.0
00:30 - 01:00 9.0 235 12.2
01:00 - 01:30 6.8 250 10.1
01:30 - 02:00 9.0 242 12.6
02:00 - 02:30 7.6 247 10.1
02:30 - 03:00 8.3 272 12.2
03:00 - 03:30 7.6 284 10.4
03:30 - 04:00 5.8 281 7.9
04:00 - 04:30 2.9 231 6.5
04:30 - 05:00 8.6 261 17.3
05:00 - 05:30 11.2 287 16.2
05:30 - 06:00 11.2 271 15.8
06:00 - 06:30 9.0 274 15.5
06:30 - 07:00 5.4 339 10.4
07:00 - 07:30 9.4 72 13.0
07:30 - 08:00 9.4 39 14.4
08:00 - 08:30 9.7 41 12.6
08:30 - 09:00 6.1 61 11.2
09:00 - 09:30 6.1 96 9.0
09:30 - 10:00 8.6 105 10.4
10:00 - 10:30 8.6 113 11.5
10:30 - 11:00 7.2 135 11.9
11:00 - 11:30 14.4 165 18.4
11:30 - 12:00 14.8 186 18.7
12:00 - 12:30 18.0 195 23.0
12:30 - 13:00 18.4 198 20.9

Les dades en taronja només han passat un control de qualitat automàtic. Resta pendent la seva validació definitiva.